N74BL MMCB-MMCB
Flight info
| Callsign | N74BL |
|---|---|
| Flight time | 0h 15m |
| Altitude | 8500 |
| Route | LCL VFR |
| Aircraft | AEST/L-VGD/A |
Departure
| Time | 2026-05-07 18:17 |
|---|---|
| Airport | General Mariano Matamoros International Airport (MMCB) |
Arrival
| Time | 2026-05-07 18:32 |
|---|---|
| Airport | General Mariano Matamoros International Airport (MMCB) |
| Time | Latitude | Longitude | Altitude | Speed | Heading |
|---|---|---|---|---|---|
| 2026-05-07 18:01 | 18.83352 | -99.26106 | 4223 ft | 0 kts | 32° |
| 2026-05-07 18:12 | 18.83353 | -99.26105 | 4250 ft | 0 kts | 32° |
| 2026-05-07 18:12 | 18.83355 | -99.26104 | 4250 ft | 2 kts | 43° |
| 2026-05-07 18:12 | 18.83365 | -99.26118 | 4223 ft | 11 kts | 214° |
| 2026-05-07 18:13 | 18.83286 | -99.26167 | 4219 ft | 6 kts | 210° |
| 2026-05-07 18:13 | 18.83247 | -99.26211 | 4217 ft | 0 kts | 284° |
| 2026-05-07 18:13 | 18.83255 | -99.26234 | 4217 ft | 10 kts | 294° |
| 2026-05-07 18:13 | 18.83339 | -99.26232 | 4220 ft | 18 kts | 35° |
| 2026-05-07 18:14 | 18.83469 | -99.26145 | 4226 ft | 26 kts | 32° |
| 2026-05-07 18:14 | 18.83640 | -99.26034 | 4234 ft | 31 kts | 31° |
| 2026-05-07 18:14 | 18.83839 | -99.25907 | 4240 ft | 34 kts | 31° |
| 2026-05-07 18:14 | 18.84040 | -99.25780 | 4248 ft | 33 kts | 32° |
| 2026-05-07 18:15 | 18.84235 | -99.25653 | 4257 ft | 32 kts | 31° |
| 2026-05-07 18:15 | 18.84422 | -99.25529 | 4266 ft | 31 kts | 52° |
| 2026-05-07 18:15 | 18.84481 | -99.25432 | 4271 ft | 10 kts | 324° |
| 2026-05-07 18:15 | 18.84501 | -99.25479 | 4271 ft | 10 kts | 247° |
| 2026-05-07 18:16 | 18.84488 | -99.25491 | 4267 ft | 2 kts | 211° |
| 2026-05-07 18:16 | 18.84486 | -99.25492 | 4268 ft | 6 kts | 211° |
| 2026-05-07 18:16 | 18.84199 | -99.25675 | 4255 ft | 83 kts | 211° |
| 2026-05-07 18:16 | 18.83599 | -99.26072 | 4298 ft | 109 kts | 211° |
| 2026-05-07 18:17 | 18.82913 | -99.26508 | 4583 ft | 117 kts | 210° |
| 2026-05-07 18:17 | 18.82218 | -99.26889 | 5108 ft | 117 kts | 187° |
| 2026-05-07 18:17 | 18.81285 | -99.26709 | 5083 ft | 152 kts | 153° |
| 2026-05-07 18:17 | 18.80456 | -99.26053 | 5358 ft | 153 kts | 124° |
| 2026-05-07 18:18 | 18.80094 | -99.24996 | 5664 ft | 152 kts | 102° |
| 2026-05-07 18:18 | 18.79873 | -99.23904 | 5926 ft | 153 kts | 104° |
| 2026-05-07 18:18 | 18.79648 | -99.22804 | 6175 ft | 156 kts | 103° |
| 2026-05-07 18:18 | 18.79433 | -99.21641 | 6273 ft | 166 kts | 83° |
| 2026-05-07 18:19 | 18.80000 | -99.20672 | 6643 ft | 156 kts | 37° |
| 2026-05-07 18:19 | 18.80994 | -99.20261 | 6870 ft | 157 kts | 8° |
| 2026-05-07 18:19 | 18.82100 | -99.20123 | 7038 ft | 162 kts | 6° |
| 2026-05-07 18:19 | 18.83219 | -99.20013 | 7338 ft | 158 kts | 5° |
| 2026-05-07 18:20 | 18.84178 | -99.19569 | 7617 ft | 156 kts | 55° |
| 2026-05-07 18:20 | 18.83917 | -99.18781 | 7705 ft | 147 kts | 206° |
| 2026-05-07 18:20 | 18.84169 | -99.19207 | 7721 ft | 126 kts | 56° |
| 2026-05-07 18:20 | 18.83718 | -99.18544 | 7672 ft | 139 kts | 148° |
| 2026-05-07 18:21 | 18.82894 | -99.18003 | 7925 ft | 145 kts | 148° |
| 2026-05-07 18:21 | 18.82167 | -99.17302 | 8209 ft | 142 kts | 108° |
| 2026-05-07 18:21 | 18.82356 | -99.16340 | 8458 ft | 142 kts | 46° |
| 2026-05-07 18:21 | 18.83181 | -99.15670 | 8518 ft | 158 kts | 34° |
| 2026-05-07 18:22 | 18.84126 | -99.14964 | 8498 ft | 172 kts | 34° |
| 2026-05-07 18:22 | 18.84466 | -99.14721 | 8457 ft | 178 kts | 34° |
| 2026-05-07 18:22 | 18.86210 | -99.13474 | 8469 ft | 187 kts | 34° |
| 2026-05-07 18:22 | 18.87416 | -99.13043 | 8508 ft | 188 kts | 353° |
| 2026-05-07 18:23 | 18.88508 | -99.13781 | 8442 ft | 197 kts | 300° |
| 2026-05-07 18:23 | 18.88485 | -99.15167 | 8454 ft | 201 kts | 236° |
| 2026-05-07 18:23 | 18.87757 | -99.15743 | 8465 ft | 202 kts | 196° |
| 2026-05-07 18:23 | 18.86144 | -99.15086 | 8498 ft | 199 kts | 119° |
| 2026-05-07 18:24 | 18.85936 | -99.14156 | 8480 ft | 199 kts | 83° |
| 2026-05-07 18:24 | 18.86561 | -99.12912 | 8551 ft | 192 kts | 43° |
| 2026-05-07 18:24 | 18.87498 | -99.11935 | 8596 ft | 191 kts | 66° |
| 2026-05-07 18:24 | 18.87128 | -99.10679 | 8385 ft | 203 kts | 150° |
| 2026-05-07 18:25 | 18.85819 | -99.10815 | 8421 ft | 199 kts | 221° |
| 2026-05-07 18:25 | 18.85595 | -99.12134 | 8433 ft | 197 kts | 303° |
| 2026-05-07 18:25 | 18.86778 | -99.12621 | 8469 ft | 188 kts | 18° |
| 2026-05-07 18:25 | 18.87863 | -99.11926 | 8597 ft | 186 kts | 37° |
| 2026-05-07 18:26 | 18.88854 | -99.11246 | 8795 ft | 127 kts | 36° |
| 2026-05-07 18:26 | 18.88866 | -99.10028 | 7872 ft | 196 kts | 98° |
| 2026-05-07 18:26 | 18.89199 | -99.08778 | 8340 ft | 170 kts | 50° |
| 2026-05-07 18:26 | 18.90199 | -99.08126 | 8432 ft | 177 kts | 11° |
| 2026-05-07 18:27 | 18.91417 | -99.08317 | 8463 ft | 184 kts | 330° |
| 2026-05-07 18:27 | 18.92222 | -99.09354 | 8449 ft | 191 kts | 286° |
| 2026-05-07 18:27 | 18.92377 | -99.10722 | 8641 ft | 185 kts | 276° |
| 2026-05-07 18:27 | 18.92497 | -99.12102 | 8612 ft | 194 kts | 274° |
| 2026-05-07 18:28 | 18.92559 | -99.13550 | 8593 ft | 199 kts | 271° |
| 2026-05-07 18:28 | 18.92557 | -99.15023 | 8609 ft | 202 kts | 269° |
| 2026-05-07 18:28 | 18.92599 | -99.16568 | 8284 ft | 220 kts | 273° |
| 2026-05-07 18:28 | 18.92659 | -99.18187 | 8251 ft | 219 kts | 270° |
| 2026-05-07 18:29 | 18.92637 | -99.19803 | 8130 ft | 223 kts | 264° |
| 2026-05-07 18:29 | 18.92322 | -99.21421 | 7941 ft | 227 kts | 250° |
| 2026-05-07 18:29 | 18.91693 | -99.22943 | 7889 ft | 224 kts | 243° |
| 2026-05-07 18:29 | 18.90992 | -99.24403 | 7796 ft | 227 kts | 242° |
| 2026-05-07 18:30 | 18.90274 | -99.25888 | 7523 ft | 220 kts | 241° |
| 2026-05-07 18:30 | 18.89512 | -99.27215 | 7383 ft | 202 kts | 227° |
| 2026-05-07 18:30 | 18.88326 | -99.27623 | 6774 ft | 195 kts | 155° |
| 2026-05-07 18:30 | 18.88173 | -99.26410 | 6636 ft | 169 kts | 85° |
| 2026-05-07 18:31 | 18.87909 | -99.25341 | 6225 ft | 133 kts | 127° |
| 2026-05-07 18:31 | 18.87343 | -99.24632 | 5567 ft | 119 kts | 151° |
| 2026-05-07 18:31 | 18.86627 | -99.24557 | 5202 ft | 110 kts | 178° |
| 2026-05-07 18:31 | 18.85890 | -99.24602 | 4846 ft | 102 kts | 202° |
| 2026-05-07 18:32 | 18.85254 | -99.24998 | 4552 ft | 110 kts | 210° |
| 2026-05-07 18:32 | 18.84643 | -99.25389 | 4316 ft | 99 kts | 210° |
| 2026-05-07 18:32 | 18.84167 | -99.25698 | 4254 ft | 63 kts | 210° |
| 2026-05-07 18:32 | 18.83852 | -99.25904 | 4241 ft | 45 kts | 211° |
| 2026-05-07 18:33 | 18.83612 | -99.26050 | 4233 ft | 25 kts | 211° |
| 2026-05-07 18:33 | 18.83492 | -99.25982 | 4229 ft | 22 kts | 107° |
| 2026-05-07 18:33 | 18.83476 | -99.25924 | 4230 ft | 0 kts | 118° |